Terminal Aerodrome Forecast
Issued by NWS

Home | Current Version | Previous Version | Text Only | Print | Product List | Glossary On
Versions: 1 2 3 4 5 6 7 8 9 10 11 12 13 14
000
FTUS46 KSEW 162330
TAFCLM
TAF
KCLM 162330Z 1700/1724 VRB05KT P6SM VCSH BKN060 BKN100 OVC250
     FM170600 28009KT P6SM VCSH OVC050
      TEMPO 1706/1710 -RA BKN020 OVC040
     FM171000 27012KT P6SM -RA OVC020
     FM172100 29015KT P6SM VCSH BKN030=

USA.gov is the U.S. government's official web portal to all federal, state and local government web resources and services.